sensor_id;sensor_type;location;lat;lon;timestamp;temperature;humidity
35607;DHT22;21729;58.392;15.656;2022-08-19T00:01:51;17.70;1.00
35607;DHT22;21729;58.392;15.656;2022-08-19T00:04:20;17.60;1.00
35607;DHT22;21729;58.392;15.656;2022-08-19T00:06:48;17.60;1.00
35607;DHT22;21729;58.392;15.656;2022-08-19T00:09:17;17.60;1.00
35607;DHT22;21729;58.392;15.656;2022-08-19T00:11:45;17.60;1.00
35607;DHT22;21729;58.392;15.656;2022-08-19T00:14:16;17.50;1.00
35607;DHT22;21729;58.392;15.656;2022-08-19T00:16:44;17.50;1.00
35607;DHT22;21729;58.392;15.656;2022-08-19T00:19:13;17.50;1.00
35607;DHT22;21729;58.392;15.656;2022-08-19T00:21:40;17.40;1.00
35607;DHT22;21729;58.392;15.656;2022-08-19T00:24:09;17.40;1.00
35607;DHT22;21729;58.392;15.656;2022-08-19T00:26:37;17.40;1.00
35607;DHT22;21729;58.392;15.656;2022-08-19T00:29:06;17.40;1.00
35607;DHT22;21729;58.392;15.656;2022-08-19T00:31:38;17.40;1.00
35607;DHT22;21729;58.392;15.656;2022-08-19T00:34:06;17.40;1.00
35607;DHT22;21729;58.392;15.656;2022-08-19T00:36:33;17.40;1.00
35607;DHT22;21729;58.392;15.656;2022-08-19T00:39:00;17.40;1.00
35607;DHT22;21729;58.392;15.656;2022-08-19T00:41:28;17.70;1.00
35607;DHT22;21729;58.392;15.656;2022-08-19T00:44:03;17.40;1.00
35607;DHT22;21729;58.392;15.656;2022-08-19T00:46:31;17.40;1.00
35607;DHT22;21729;58.392;15.656;2022-08-19T00:49:04;17.50;1.00
35607;DHT22;21729;58.392;15.656;2022-08-19T00:51:38;17.50;1.00
35607;DHT22;21729;58.392;15.656;2022-08-19T00:54:05;17.40;1.00
35607;DHT22;21729;58.392;15.656;2022-08-19T00:56:32;17.50;1.00
35607;DHT22;21729;58.392;15.656;2022-08-19T00:59:01;17.40;1.00
35607;DHT22;21729;58.392;15.656;2022-08-19T01:01:29;17.40;1.00
35607;DHT22;21729;58.392;15.656;2022-08-19T01:03:56;17.40;1.00
35607;DHT22;21729;58.392;15.656;2022-08-19T01:06:25;17.40;1.00
35607;DHT22;21729;58.392;15.656;2022-08-19T01:08:53;17.40;1.00
35607;DHT22;21729;58.392;15.656;2022-08-19T01:11:20;17.40;1.00
35607;DHT22;21729;58.392;15.656;2022-08-19T01:13:48;17.50;1.00
35607;DHT22;21729;58.392;15.656;2022-08-19T01:16:18;17.50;1.00
35607;DHT22;21729;58.392;15.656;2022-08-19T01:18:47;17.60;1.00
35607;DHT22;21729;58.392;15.656;2022-08-19T01:21:22;17.60;1.00
35607;DHT22;21729;58.392;15.656;2022-08-19T01:23:54;17.70;1.00
35607;DHT22;21729;58.392;15.656;2022-08-19T01:26:23;17.70;1.00
35607;DHT22;21729;58.392;15.656;2022-08-19T01:28:53;17.70;1.00
35607;DHT22;21729;58.392;15.656;2022-08-19T01:31:24;17.80;1.00
35607;DHT22;21729;58.392;15.656;2022-08-19T01:33:52;17.80;1.00
35607;DHT22;21729;58.392;15.656;2022-08-19T01:36:24;17.80;1.00
35607;DHT22;21729;58.392;15.656;2022-08-19T01:38:54;17.80;1.00
35607;DHT22;21729;58.392;15.656;2022-08-19T01:41:21;17.90;1.00
35607;DHT22;21729;58.392;15.656;2022-08-19T01:43:49;17.90;1.00
35607;DHT22;21729;58.392;15.656;2022-08-19T01:46:17;17.90;1.00
35607;DHT22;21729;58.392;15.656;2022-08-19T01:48:44;18.00;1.00
35607;DHT22;21729;58.392;15.656;2022-08-19T01:51:13;18.00;1.00
35607;DHT22;21729;58.392;15.656;2022-08-19T01:53:41;17.90;1.00
35607;DHT22;21729;58.392;15.656;2022-08-19T01:56:10;18.00;1.00
35607;DHT22;21729;58.392;15.656;2022-08-19T01:58:41;18.00;1.00
35607;DHT22;21729;58.392;15.656;2022-08-19T02:01:08;18.00;1.00
35607;DHT22;21729;58.392;15.656;2022-08-19T02:03:35;18.00;1.00
35607;DHT22;21729;58.392;15.656;2022-08-19T02:06:04;18.00;1.00
35607;DHT22;21729;58.392;15.656;2022-08-19T02:08:33;18.00;1.00
35607;DHT22;21729;58.392;15.656;2022-08-19T02:11:01;18.00;1.00
35607;DHT22;21729;58.392;15.656;2022-08-19T02:13:30;18.00;1.00
35607;DHT22;21729;58.392;15.656;2022-08-19T02:15:57;18.00;1.00
35607;DHT22;21729;58.392;15.656;2022-08-19T02:18:24;18.10;1.00
35607;DHT22;21729;58.392;15.656;2022-08-19T02:20:52;18.10;1.00
35607;DHT22;21729;58.392;15.656;2022-08-19T02:23:20;18.10;1.00
35607;DHT22;21729;58.392;15.656;2022-08-19T02:25:48;18.10;1.00
35607;DHT22;21729;58.392;15.656;2022-08-19T02:28:16;18.10;1.00
35607;DHT22;21729;58.392;15.656;2022-08-19T02:30:44;18.10;1.00
35607;DHT22;21729;58.392;15.656;2022-08-19T02:33:12;18.10;1.00
35607;DHT22;21729;58.392;15.656;2022-08-19T02:35:41;18.10;1.00
35607;DHT22;21729;58.392;15.656;2022-08-19T02:38:09;18.10;1.00
35607;DHT22;21729;58.392;15.656;2022-08-19T02:40:56;18.10;1.00
35607;DHT22;21729;58.392;15.656;2022-08-19T02:43:24;18.10;1.00
35607;DHT22;21729;58.392;15.656;2022-08-19T02:45:53;18.10;1.00
35607;DHT22;21729;58.392;15.656;2022-08-19T02:48:22;18.10;1.00
35607;DHT22;21729;58.392;15.656;2022-08-19T02:50:50;18.10;1.00
35607;DHT22;21729;58.392;15.656;2022-08-19T02:53:20;18.10;1.00
35607;DHT22;21729;58.392;15.656;2022-08-19T02:55:49;18.10;1.00
35607;DHT22;21729;58.392;15.656;2022-08-19T02:58:16;18.10;1.00
35607;DHT22;21729;58.392;15.656;2022-08-19T03:00:44;18.10;1.00
35607;DHT22;21729;58.392;15.656;2022-08-19T03:03:13;18.10;1.00
35607;DHT22;21729;58.392;15.656;2022-08-19T03:05:40;18.10;1.00
35607;DHT22;21729;58.392;15.656;2022-08-19T03:08:07;18.10;1.00
35607;DHT22;21729;58.392;15.656;2022-08-19T03:10:41;18.10;1.00
35607;DHT22;21729;58.392;15.656;2022-08-19T03:13:11;18.10;1.00
35607;DHT22;21729;58.392;15.656;2022-08-19T03:15:42;18.00;1.00
35607;DHT22;21729;58.392;15.656;2022-08-19T03:18:09;18.10;1.00
35607;DHT22;21729;58.392;15.656;2022-08-19T03:20:42;18.00;1.00
35607;DHT22;21729;58.392;15.656;2022-08-19T03:23:10;18.00;1.00
35607;DHT22;21729;58.392;15.656;2022-08-19T03:25:39;18.10;1.00
35607;DHT22;21729;58.392;15.656;2022-08-19T03:28:09;18.10;1.00
35607;DHT22;21729;58.392;15.656;2022-08-19T03:30:37;18.10;1.00
35607;DHT22;21729;58.392;15.656;2022-08-19T03:33:05;18.00;1.00
35607;DHT22;21729;58.392;15.656;2022-08-19T03:35:33;18.00;1.00
35607;DHT22;21729;58.392;15.656;2022-08-19T03:38:03;18.00;1.00
35607;DHT22;21729;58.392;15.656;2022-08-19T03:40:31;17.90;1.00
35607;DHT22;21729;58.392;15.656;2022-08-19T03:43:00;18.00;1.00
35607;DHT22;21729;58.392;15.656;2022-08-19T03:45:27;18.00;1.00
35607;DHT22;21729;58.392;15.656;2022-08-19T03:47:55;18.00;1.00
35607;DHT22;21729;58.392;15.656;2022-08-19T03:50:22;18.00;1.00
35607;DHT22;21729;58.392;15.656;2022-08-19T03:52:50;18.00;1.00
35607;DHT22;21729;58.392;15.656;2022-08-19T03:55:19;17.90;1.00
35607;DHT22;21729;58.392;15.656;2022-08-19T03:57:46;17.90;1.00
35607;DHT22;21729;58.392;15.656;2022-08-19T04:00:15;17.90;1.00
35607;DHT22;21729;58.392;15.656;2022-08-19T04:02:43;17.90;1.00
35607;DHT22;21729;58.392;15.656;2022-08-19T04:05:10;17.90;1.00
35607;DHT22;21729;58.392;15.656;2022-08-19T04:07:38;17.80;1.00
35607;DHT22;21729;58.392;15.656;2022-08-19T04:10:05;17.80;2.80
35607;DHT22;21729;58.392;15.656;2022-08-19T04:12:34;17.80;4.30
35607;DHT22;21729;58.392;15.656;2022-08-19T04:15:02;17.90;1.00
35607;DHT22;21729;58.392;15.656;2022-08-19T04:17:31;17.80;3.30
35607;DHT22;21729;58.392;15.656;2022-08-19T04:19:59;17.80;4.40
35607;DHT22;21729;58.392;15.656;2022-08-19T04:22:26;17.90;5.20
35607;DHT22;21729;58.392;15.656;2022-08-19T04:24:53;17.90;6.70
35607;DHT22;21729;58.392;15.656;2022-08-19T04:27:20;17.90;6.10
35607;DHT22;21729;58.392;15.656;2022-08-19T04:29:49;17.90;8.60
35607;DHT22;21729;58.392;15.656;2022-08-19T04:32:16;17.80;14.20
35607;DHT22;21729;58.392;15.656;2022-08-19T04:34:43;17.80;19.90
35607;DHT22;21729;58.392;15.656;2022-08-19T04:37:10;17.80;24.00
35607;DHT22;21729;58.392;15.656;2022-08-19T04:39:39;17.80;26.80
35607;DHT22;21729;58.392;15.656;2022-08-19T04:42:23;17.80;28.60
35607;DHT22;21729;58.392;15.656;2022-08-19T04:45:09;17.80;30.20
35607;DHT22;21729;58.392;15.656;2022-08-19T04:47:38;17.90;33.30
35607;DHT22;21729;58.392;15.656;2022-08-19T04:50:07;17.90;38.60
35607;DHT22;21729;58.392;15.656;2022-08-19T04:52:36;17.90;39.40
35607;DHT22;21729;58.392;15.656;2022-08-19T04:55:08;18.00;40.50
35607;DHT22;21729;58.392;15.656;2022-08-19T04:57:35;18.00;41.20
35607;DHT22;21729;58.392;15.656;2022-08-19T05:00:08;18.00;49.50
35607;DHT22;21729;58.392;15.656;2022-08-19T05:02:36;18.00;43.10
35607;DHT22;21729;58.392;15.656;2022-08-19T05:05:03;18.10;49.30
35607;DHT22;21729;58.392;15.656;2022-08-19T05:07:32;18.10;57.60
35607;DHT22;21729;58.392;15.656;2022-08-19T05:09:59;18.20;53.60
35607;DHT22;21729;58.392;15.656;2022-08-19T05:12:26;18.30;59.40
35607;DHT22;21729;58.392;15.656;2022-08-19T05:14:54;18.30;61.70
35607;DHT22;21729;58.392;15.656;2022-08-19T05:17:23;18.40;58.90
35607;DHT22;21729;58.392;15.656;2022-08-19T05:19:50;18.40;55.40
35607;DHT22;21729;58.392;15.656;2022-08-19T05:22:35;18.50;55.80
35607;DHT22;21729;58.392;15.656;2022-08-19T05:25:05;18.50;38.20
35607;DHT22;21729;58.392;15.656;2022-08-19T05:27:33;18.50;14.60
35607;DHT22;21729;58.392;15.656;2022-08-19T05:30:01;18.70;28.20
35607;DHT22;21729;58.392;15.656;2022-08-19T05:32:29;18.80;14.30
35607;DHT22;21729;58.392;15.656;2022-08-19T05:34:57;18.90;1.00
35607;DHT22;21729;58.392;15.656;2022-08-19T05:37:24;18.80;1.00
35607;DHT22;21729;58.392;15.656;2022-08-19T05:39:53;19.00;1.00
35607;DHT22;21729;58.392;15.656;2022-08-19T05:42:21;19.30;1.00
35607;DHT22;21729;58.392;15.656;2022-08-19T05:44:51;19.30;1.00
35607;DHT22;21729;58.392;15.656;2022-08-19T05:47:18;19.10;1.00
35607;DHT22;21729;58.392;15.656;2022-08-19T05:49:47;19.10;1.00
35607;DHT22;21729;58.392;15.656;2022-08-19T05:52:15;19.10;1.00
35607;DHT22;21729;58.392;15.656;2022-08-19T05:54:43;19.00;1.00
35607;DHT22;21729;58.392;15.656;2022-08-19T05:57:10;19.40;1.00
35607;DHT22;21729;58.392;15.656;2022-08-19T05:59:37;19.80;1.00
35607;DHT22;21729;58.392;15.656;2022-08-19T06:02:05;19.80;99.90
35607;DHT22;21729;58.392;15.656;2022-08-19T06:04:33;19.70;99.90
35607;DHT22;21729;58.392;15.656;2022-08-19T06:07:02;19.60;99.90
35607;DHT22;21729;58.392;15.656;2022-08-19T06:09:30;19.70;99.90
35607;DHT22;21729;58.392;15.656;2022-08-19T06:11:58;19.60;99.90
35607;DHT22;21729;58.392;15.656;2022-08-19T06:14:30;19.70;99.90
35607;DHT22;21729;58.392;15.656;2022-08-19T06:16:58;20.10;99.90
35607;DHT22;21729;58.392;15.656;2022-08-19T06:19:25;20.50;99.90
35607;DHT22;21729;58.392;15.656;2022-08-19T06:21:58;21.00;99.90
35607;DHT22;21729;58.392;15.656;2022-08-19T06:24:28;21.10;1.00
35607;DHT22;21729;58.392;15.656;2022-08-19T06:27:02;22.60;1.00
35607;DHT22;21729;58.392;15.656;2022-08-19T06:29:31;24.90;99.90
35607;DHT22;21729;58.392;15.656;2022-08-19T06:32:01;25.30;1.00
35607;DHT22;21729;58.392;15.656;2022-08-19T06:34:30;26.20;1.00
35607;DHT22;21729;58.392;15.656;2022-08-19T06:36:59;26.60;1.00
35607;DHT22;21729;58.392;15.656;2022-08-19T06:39:30;27.10;99.90
35607;DHT22;21729;58.392;15.656;2022-08-19T06:42:01;27.60;99.90
35607;DHT22;21729;58.392;15.656;2022-08-19T06:44:30;27.10;99.90
35607;DHT22;21729;58.392;15.656;2022-08-19T06:47:03;27.00;99.90
35607;DHT22;21729;58.392;15.656;2022-08-19T06:49:30;27.90;99.90
35607;DHT22;21729;58.392;15.656;2022-08-19T06:51:58;28.30;99.90
35607;DHT22;21729;58.392;15.656;2022-08-19T06:54:27;28.20;99.90
35607;DHT22;21729;58.392;15.656;2022-08-19T06:56:56;29.10;99.90
35607;DHT22;21729;58.392;15.656;2022-08-19T06:59:24;29.40;99.90
35607;DHT22;21729;58.392;15.656;2022-08-19T07:01:54;29.40;26.70
35607;DHT22;21729;58.392;15.656;2022-08-19T07:04:24;29.10;54.60
35607;DHT22;21729;58.392;15.656;2022-08-19T07:06:58;29.90;32.80
35607;DHT22;21729;58.392;15.656;2022-08-19T07:09:26;29.60;78.50
35607;DHT22;21729;58.392;15.656;2022-08-19T07:11:54;30.30;25.30
35607;DHT22;21729;58.392;15.656;2022-08-19T07:14:24;31.10;1.00
35607;DHT22;21729;58.392;15.656;2022-08-19T07:16:52;31.90;1.00
35607;DHT22;21729;58.392;15.656;2022-08-19T07:19:20;31.40;1.00
35607;DHT22;21729;58.392;15.656;2022-08-19T07:21:48;31.40;1.00
35607;DHT22;21729;58.392;15.656;2022-08-19T07:24:18;31.90;1.00
35607;DHT22;21729;58.392;15.656;2022-08-19T07:26:46;32.00;1.00
35607;DHT22;21729;58.392;15.656;2022-08-19T07:29:13;31.90;1.00
35607;DHT22;21729;58.392;15.656;2022-08-19T07:31:42;32.20;1.00
35607;DHT22;21729;58.392;15.656;2022-08-19T07:34:10;32.50;1.00
35607;DHT22;21729;58.392;15.656;2022-08-19T07:36:40;32.10;1.00
35607;DHT22;21729;58.392;15.656;2022-08-19T07:39:13;32.40;1.00
35607;DHT22;21729;58.392;15.656;2022-08-19T07:41:41;32.80;1.00
35607;DHT22;21729;58.392;15.656;2022-08-19T07:44:09;33.20;1.00
35607;DHT22;21729;58.392;15.656;2022-08-19T07:46:41;32.30;1.00
35607;DHT22;21729;58.392;15.656;2022-08-19T07:49:10;33.20;1.00
35607;DHT22;21729;58.392;15.656;2022-08-19T07:51:45;32.70;1.00
35607;DHT22;21729;58.392;15.656;2022-08-19T07:54:13;32.40;1.00
35607;DHT22;21729;58.392;15.656;2022-08-19T07:56:40;33.40;1.00
35607;DHT22;21729;58.392;15.656;2022-08-19T07:59:07;33.70;99.90
35607;DHT22;21729;58.392;15.656;2022-08-19T08:01:35;33.30;1.00
35607;DHT22;21729;58.392;15.656;2022-08-19T08:04:04;33.40;99.90
35607;DHT22;21729;58.392;15.656;2022-08-19T08:06:48;33.50;1.00
35607;DHT22;21729;58.392;15.656;2022-08-19T08:09:35;33.00;99.90
35607;DHT22;21729;58.392;15.656;2022-08-19T08:12:06;33.20;99.90
35607;DHT22;21729;58.392;15.656;2022-08-19T08:14:37;33.40;99.90
35607;DHT22;21729;58.392;15.656;2022-08-19T08:17:05;33.40;99.90
35607;DHT22;21729;58.392;15.656;2022-08-19T08:19:34;33.60;99.90
35607;DHT22;21729;58.392;15.656;2022-08-19T08:22:01;34.00;99.90
35607;DHT22;21729;58.392;15.656;2022-08-19T08:24:30;33.90;99.90
35607;DHT22;21729;58.392;15.656;2022-08-19T08:26:59;34.00;99.90
35607;DHT22;21729;58.392;15.656;2022-08-19T08:29:28;33.90;99.90
35607;DHT22;21729;58.392;15.656;2022-08-19T08:31:55;33.90;99.90
35607;DHT22;21729;58.392;15.656;2022-08-19T08:34:23;33.90;99.90
35607;DHT22;21729;58.392;15.656;2022-08-19T08:36:51;33.50;99.90
35607;DHT22;21729;58.392;15.656;2022-08-19T08:39:20;33.10;99.90
35607;DHT22;21729;58.392;15.656;2022-08-19T08:41:53;33.10;99.90
35607;DHT22;21729;58.392;15.656;2022-08-19T08:44:23;32.90;1.00
35607;DHT22;21729;58.392;15.656;2022-08-19T08:46:57;33.20;99.90
35607;DHT22;21729;58.392;15.656;2022-08-19T08:49:31;32.80;99.90
35607;DHT22;21729;58.392;15.656;2022-08-19T08:52:04;33.50;99.90
35607;DHT22;21729;58.392;15.656;2022-08-19T08:54:37;32.70;99.90
35607;DHT22;21729;58.392;15.656;2022-08-19T08:57:10;33.80;99.90
35607;DHT22;21729;58.392;15.656;2022-08-19T08:59:40;33.80;99.90
35607;DHT22;21729;58.392;15.656;2022-08-19T09:02:08;33.90;99.90
35607;DHT22;21729;58.392;15.656;2022-08-19T09:04:36;34.00;99.90
35607;DHT22;21729;58.392;15.656;2022-08-19T09:07:19;34.70;99.90
35607;DHT22;21729;58.392;15.656;2022-08-19T09:09:51;34.40;99.90
35607;DHT22;21729;58.392;15.656;2022-08-19T09:12:25;34.10;99.90
35607;DHT22;21729;58.392;15.656;2022-08-19T09:14:58;33.70;99.90
35607;DHT22;21729;58.392;15.656;2022-08-19T09:17:29;34.20;99.90
35607;DHT22;21729;58.392;15.656;2022-08-19T09:20:01;33.90;99.90
35607;DHT22;21729;58.392;15.656;2022-08-19T09:22:34;33.20;99.90
35607;DHT22;21729;58.392;15.656;2022-08-19T09:25:01;33.30;99.90
35607;DHT22;21729;58.392;15.656;2022-08-19T09:27:31;34.40;99.90
35607;DHT22;21729;58.392;15.656;2022-08-19T09:29:58;34.80;99.90
35607;DHT22;21729;58.392;15.656;2022-08-19T09:32:25;34.00;99.90
35607;DHT22;21729;58.392;15.656;2022-08-19T09:34:53;33.70;99.90
35607;DHT22;21729;58.392;15.656;2022-08-19T09:37:23;34.50;99.90
35607;DHT22;21729;58.392;15.656;2022-08-19T09:39:52;34.10;99.90
35607;DHT22;21729;58.392;15.656;2022-08-19T09:42:20;33.60;99.90
35607;DHT22;21729;58.392;15.656;2022-08-19T09:44:47;32.90;99.90
35607;DHT22;21729;58.392;15.656;2022-08-19T09:47:14;33.00;99.90
35607;DHT22;21729;58.392;15.656;2022-08-19T09:49:42;32.70;99.90
35607;DHT22;21729;58.392;15.656;2022-08-19T09:52:09;32.80;99.90
35607;DHT22;21729;58.392;15.656;2022-08-19T09:54:37;32.10;99.90
35607;DHT22;21729;58.392;15.656;2022-08-19T09:57:06;33.00;99.90
35607;DHT22;21729;58.392;15.656;2022-08-19T09:59:33;33.30;99.90
35607;DHT22;21729;58.392;15.656;2022-08-19T10:02:01;33.60;99.90
35607;DHT22;21729;58.392;15.656;2022-08-19T10:04:28;31.80;99.90
35607;DHT22;21729;58.392;15.656;2022-08-19T10:07:09;30.80;99.90
35607;DHT22;21729;58.392;15.656;2022-08-19T10:09:36;30.50;99.90
35607;DHT22;21729;58.392;15.656;2022-08-19T10:12:05;30.70;1.00
35607;DHT22;21729;58.392;15.656;2022-08-19T10:14:33;30.00;1.00
35607;DHT22;21729;58.392;15.656;2022-08-19T10:17:00;30.10;1.00
35607;DHT22;21729;58.392;15.656;2022-08-19T10:19:28;30.10;1.00
35607;DHT22;21729;58.392;15.656;2022-08-19T10:22:03;30.40;1.00
35607;DHT22;21729;58.392;15.656;2022-08-19T10:24:31;30.50;1.00
35607;DHT22;21729;58.392;15.656;2022-08-19T10:26:59;29.60;1.00
35607;DHT22;21729;58.392;15.656;2022-08-19T10:29:30;30.00;1.00
35607;DHT22;21729;58.392;15.656;2022-08-19T10:32:01;29.70;1.00
35607;DHT22;21729;58.392;15.656;2022-08-19T10:34:29;30.00;1.00
35607;DHT22;21729;58.392;15.656;2022-08-19T10:36:58;30.00;1.00
35607;DHT22;21729;58.392;15.656;2022-08-19T10:39:26;30.20;1.00
35607;DHT22;21729;58.392;15.656;2022-08-19T10:41:55;30.20;1.00
35607;DHT22;21729;58.392;15.656;2022-08-19T10:44:23;29.90;99.90
35607;DHT22;21729;58.392;15.656;2022-08-19T10:46:51;30.10;1.00
35607;DHT22;21729;58.392;15.656;2022-08-19T10:49:19;30.10;1.00
35607;DHT22;21729;58.392;15.656;2022-08-19T10:51:46;30.20;99.90
35607;DHT22;21729;58.392;15.656;2022-08-19T10:54:32;30.20;99.90
35607;DHT22;21729;58.392;15.656;2022-08-19T10:57:13;29.90;1.00
35607;DHT22;21729;58.392;15.656;2022-08-19T10:59:40;30.00;1.00
35607;DHT22;21729;58.392;15.656;2022-08-19T11:02:11;29.90;99.90
35607;DHT22;21729;58.392;15.656;2022-08-19T11:04:39;29.80;1.00
35607;DHT22;21729;58.392;15.656;2022-08-19T11:07:07;29.80;99.90
35607;DHT22;21729;58.392;15.656;2022-08-19T11:09:39;29.80;1.00
35607;DHT22;21729;58.392;15.656;2022-08-19T11:12:07;29.90;1.00
35607;DHT22;21729;58.392;15.656;2022-08-19T11:14:35;30.10;1.00
35607;DHT22;21729;58.392;15.656;2022-08-19T11:17:03;30.00;99.90
35607;DHT22;21729;58.392;15.656;2022-08-19T11:19:33;30.10;99.90
35607;DHT22;21729;58.392;15.656;2022-08-19T11:22:00;30.10;99.90
35607;DHT22;21729;58.392;15.656;2022-08-19T11:24:29;29.80;99.90
35607;DHT22;21729;58.392;15.656;2022-08-19T11:27:02;29.50;99.90
35607;DHT22;21729;58.392;15.656;2022-08-19T11:29:30;29.50;1.40
35607;DHT22;21729;58.392;15.656;2022-08-19T11:31:57;29.50;99.90
35607;DHT22;21729;58.392;15.656;2022-08-19T11:34:28;29.70;1.00
35607;DHT22;21729;58.392;15.656;2022-08-19T11:36:57;29.80;99.90
35607;DHT22;21729;58.392;15.656;2022-08-19T11:39:27;29.80;99.90
35607;DHT22;21729;58.392;15.656;2022-08-19T11:41:54;30.10;99.90
35607;DHT22;21729;58.392;15.656;2022-08-19T11:44:21;29.90;99.90
35607;DHT22;21729;58.392;15.656;2022-08-19T11:46:48;30.10;99.90
35607;DHT22;21729;58.392;15.656;2022-08-19T11:49:17;30.10;99.90
35607;DHT22;21729;58.392;15.656;2022-08-19T11:51:46;30.40;99.90
35607;DHT22;21729;58.392;15.656;2022-08-19T11:54:15;30.30;99.90
35607;DHT22;21729;58.392;15.656;2022-08-19T11:56:43;30.30;99.90
35607;DHT22;21729;58.392;15.656;2022-08-19T11:59:11;30.20;99.90
35607;DHT22;21729;58.392;15.656;2022-08-19T12:01:38;30.10;99.90
35607;DHT22;21729;58.392;15.656;2022-08-19T12:04:06;29.80;99.90
35607;DHT22;21729;58.392;15.656;2022-08-19T12:06:34;29.80;99.90
35607;DHT22;21729;58.392;15.656;2022-08-19T12:09:06;29.90;99.90
35607;DHT22;21729;58.392;15.656;2022-08-19T12:11:35;30.00;99.90
35607;DHT22;21729;58.392;15.656;2022-08-19T12:14:03;30.20;99.90
35607;DHT22;21729;58.392;15.656;2022-08-19T12:16:31;30.10;99.90
35607;DHT22;21729;58.392;15.656;2022-08-19T12:18:59;30.10;99.90
35607;DHT22;21729;58.392;15.656;2022-08-19T12:21:31;30.00;99.90
35607;DHT22;21729;58.392;15.656;2022-08-19T12:23:59;29.90;99.90
35607;DHT22;21729;58.392;15.656;2022-08-19T12:26:28;30.10;99.90
35607;DHT22;21729;58.392;15.656;2022-08-19T12:28:59;30.00;99.90
35607;DHT22;21729;58.392;15.656;2022-08-19T12:31:26;29.80;99.90
35607;DHT22;21729;58.392;15.656;2022-08-19T12:33:54;30.10;99.90
35607;DHT22;21729;58.392;15.656;2022-08-19T12:36:22;30.10;99.90
35607;DHT22;21729;58.392;15.656;2022-08-19T12:38:50;29.90;99.90
35607;DHT22;21729;58.392;15.656;2022-08-19T12:41:19;29.80;99.90
35607;DHT22;21729;58.392;15.656;2022-08-19T12:43:48;29.60;99.90
35607;DHT22;21729;58.392;15.656;2022-08-19T12:46:19;29.80;99.90
35607;DHT22;21729;58.392;15.656;2022-08-19T12:48:46;29.70;99.90
35607;DHT22;21729;58.392;15.656;2022-08-19T12:51:15;29.70;99.90
35607;DHT22;21729;58.392;15.656;2022-08-19T12:53:43;29.60;99.90
35607;DHT22;21729;58.392;15.656;2022-08-19T12:56:11;29.70;99.90
35607;DHT22;21729;58.392;15.656;2022-08-19T12:58:41;29.90;99.90
35607;DHT22;21729;58.392;15.656;2022-08-19T13:01:09;30.00;99.90
35607;DHT22;21729;58.392;15.656;2022-08-19T13:03:39;29.70;99.90
35607;DHT22;21729;58.392;15.656;2022-08-19T13:06:06;29.30;99.90
35607;DHT22;21729;58.392;15.656;2022-08-19T13:08:33;29.00;99.90
35607;DHT22;21729;58.392;15.656;2022-08-19T13:11:08;29.00;99.90
35607;DHT22;21729;58.392;15.656;2022-08-19T13:13:36;29.50;99.90
35607;DHT22;21729;58.392;15.656;2022-08-19T13:16:07;29.70;99.90
35607;DHT22;21729;58.392;15.656;2022-08-19T13:18:35;29.70;99.90
35607;DHT22;21729;58.392;15.656;2022-08-19T13:21:05;29.80;99.90
35607;DHT22;21729;58.392;15.656;2022-08-19T13:23:34;29.80;99.90
35607;DHT22;21729;58.392;15.656;2022-08-19T13:26:05;29.80;99.90
35607;DHT22;21729;58.392;15.656;2022-08-19T13:28:33;29.80;99.90
35607;DHT22;21729;58.392;15.656;2022-08-19T13:31:16;30.00;99.90
35607;DHT22;21729;58.392;15.656;2022-08-19T13:34:03;30.00;99.90
35607;DHT22;21729;58.392;15.656;2022-08-19T13:36:33;30.00;99.90
35607;DHT22;21729;58.392;15.656;2022-08-19T13:39:00;30.00;99.90
35607;DHT22;21729;58.392;15.656;2022-08-19T13:41:27;29.80;99.90
35607;DHT22;21729;58.392;15.656;2022-08-19T13:43:55;29.70;99.90
35607;DHT22;21729;58.392;15.656;2022-08-19T13:46:22;29.70;99.90
35607;DHT22;21729;58.392;15.656;2022-08-19T13:48:49;29.70;99.90
35607;DHT22;21729;58.392;15.656;2022-08-19T13:51:16;29.70;99.90
35607;DHT22;21729;58.392;15.656;2022-08-19T13:53:45;29.60;99.90
35607;DHT22;21729;58.392;15.656;2022-08-19T13:56:14;29.50;99.90
35607;DHT22;21729;58.392;15.656;2022-08-19T13:58:42;29.30;99.90
35607;DHT22;21729;58.392;15.656;2022-08-19T14:01:10;29.00;99.90
35607;DHT22;21729;58.392;15.656;2022-08-19T14:03:38;28.80;99.90
35607;DHT22;21729;58.392;15.656;2022-08-19T14:06:05;28.70;99.90
35607;DHT22;21729;58.392;15.656;2022-08-19T14:08:32;28.70;99.90
35607;DHT22;21729;58.392;15.656;2022-08-19T14:11:01;28.60;99.90
35607;DHT22;21729;58.392;15.656;2022-08-19T14:13:28;28.60;99.90
35607;DHT22;21729;58.392;15.656;2022-08-19T14:15:55;28.70;99.90
35607;DHT22;21729;58.392;15.656;2022-08-19T14:18:23;28.70;99.90
35607;DHT22;21729;58.392;15.656;2022-08-19T14:20:51;28.70;99.90
35607;DHT22;21729;58.392;15.656;2022-08-19T14:23:18;28.70;99.90
35607;DHT22;21729;58.392;15.656;2022-08-19T14:25:45;28.70;99.90
35607;DHT22;21729;58.392;15.656;2022-08-19T14:28:14;28.60;99.90
35607;DHT22;21729;58.392;15.656;2022-08-19T14:30:42;28.60;99.90
35607;DHT22;21729;58.392;15.656;2022-08-19T14:33:10;28.60;99.90
35607;DHT22;21729;58.392;15.656;2022-08-19T14:35:39;28.60;99.90
35607;DHT22;21729;58.392;15.656;2022-08-19T14:38:15;28.50;99.90
35607;DHT22;21729;58.392;15.656;2022-08-19T14:40:42;28.60;99.90
35607;DHT22;21729;58.392;15.656;2022-08-19T14:43:10;28.50;99.90
35607;DHT22;21729;58.392;15.656;2022-08-19T14:45:39;28.40;99.90
35607;DHT22;21729;58.392;15.656;2022-08-19T14:48:07;28.50;99.90
35607;DHT22;21729;58.392;15.656;2022-08-19T14:50:35;28.40;99.90
35607;DHT22;21729;58.392;15.656;2022-08-19T14:53:05;28.50;99.90
35607;DHT22;21729;58.392;15.656;2022-08-19T14:55:34;28.60;99.90
35607;DHT22;21729;58.392;15.656;2022-08-19T14:58:01;28.50;99.90
35607;DHT22;21729;58.392;15.656;2022-08-19T15:00:28;28.50;99.90
35607;DHT22;21729;58.392;15.656;2022-08-19T15:02:57;28.50;99.90
35607;DHT22;21729;58.392;15.656;2022-08-19T15:05:24;28.40;99.90
35607;DHT22;21729;58.392;15.656;2022-08-19T15:07:52;28.20;99.90
35607;DHT22;21729;58.392;15.656;2022-08-19T15:10:22;28.20;99.90
35607;DHT22;21729;58.392;15.656;2022-08-19T15:12:50;28.00;99.90
35607;DHT22;21729;58.392;15.656;2022-08-19T15:15:18;28.00;99.90
35607;DHT22;21729;58.392;15.656;2022-08-19T15:17:47;28.00;99.90
35607;DHT22;21729;58.392;15.656;2022-08-19T15:20:18;27.90;99.90
35607;DHT22;21729;58.392;15.656;2022-08-19T15:22:47;27.90;99.90
35607;DHT22;21729;58.392;15.656;2022-08-19T15:25:17;27.90;99.90
35607;DHT22;21729;58.392;15.656;2022-08-19T15:27:45;27.70;99.90
35607;DHT22;21729;58.392;15.656;2022-08-19T15:30:20;27.70;99.90
35607;DHT22;21729;58.392;15.656;2022-08-19T15:32:48;27.70;99.90
35607;DHT22;21729;58.392;15.656;2022-08-19T15:35:16;27.60;99.90